ROMMA est une association bénévole à but non lucratif. Votre soutien est indispensable : ADHERER à ROMMA ou FAIRE un DON

La Beaume - (05, Hautes Alpes)

Buëch (820 m)   Longitude: 5° 40' 9'' E   Latitude: 44° 32' 3'' N Station partenaire n°75
 

Détail journalier du     <<     >>

Température Precipitation Humidité Pression Vent Dir Rafale Dir. rafale Ensol.
Heure (°C) (mm) (%) (hPa) (km/h) (km/h) (min)
01:00 11.7092102005SSO0
02:00 12.0093102003SE0
03:00 11.909210202SE6SSO0
04:00 11.309210192SSO5SSO0
05:00 9.909410193N8S0
06:00 10.109510191SO5SO0
07:00 9.209510181S5S0
08:00 10.109610182S5SO0
09:00 10.409510191OSO5SO0
10:00 11.009510192SSE8SE30
11:00 13.609210194ESE10SE30
12:00 16.107710182SE6SSE30
13:00 19.205810178N21SSE60
14:00 20.7049101615SSE31SSE60
15:00 21.4051101515SSE27S60
16:00 21.7051101513SSE31SSO60
17:00 21.1052101417SSE39SO60
18:00 20.1055101418S32S0
19:00 19.6057101412SSE26SSO30
20:00 18.406110157SSE16SSE0
21:00 17.806310149S18S0
22:00 17.5062101410S21S0
23:00 17.3063101412S27S0
minuit 17.1063101311S29SO0

Graphique du 14-10-2019

 

Serveur OMMA